Time;durP1;ratioP1;P1;durP2;ratioP2;P2;SDS_P1;SDS_P2;PMS_P1;PMS_P2;Temp;Humidity;BMP_temperature;BMP_pressure;BME280_temperature;BME280_humidity;BME280_pressure;Samples;Min_cycle;Max_cycle;Signal;HPM_P1;HPM_P2
2023/06/12 08:57:22;;;;;;;5.85;4.55;;;;;;;24.92;39.37;101300.41;5074100;27;1228483;-72
2023/06/12 08:59:51;;;;;;;10.35;4.85;;;;;;;25.04;40.40;101307.38;5162092;27;20035;-78
2023/06/12 09:02:22;;;;;;;8.07;4.63;;;;;;;25.01;39.72;101300.50;5128253;28;20081;-73
2023/06/12 09:05:02;;;;;;;8.45;4.88;;;;;;;25.08;40.25;101302.88;5111043;28;20050;-71
2023/06/12 09:07:33;;;;;;;10.17;4.63;;;;;;;25.19;40.09;101298.72;5108610;27;20443;-70
2023/06/12 09:09:58;;;;;;;9.32;4.78;;;;;;;25.25;39.93;101291.91;5109692;28;20298;-71
2023/06/12 09:12:23;;;;;;;7.60;4.88;;;;;;;25.38;38.80;101289.41;5105940;28;20070;-71
2023/06/12 09:14:50;;;;;;;9.00;4.93;;;;;;;25.46;39.47;101288.69;5109535;27;20076;-73
2023/06/12 09:17:16;;;;;;;8.57;4.63;;;;;;;25.51;38.51;101298.81;5108836;28;20313;-72
2023/06/12 09:19:42;;;;;;;8.82;4.43;;;;;;;25.57;38.81;101281.72;5130072;28;20031;-72
2023/06/12 09:22:07;;;;;;;8.63;4.22;;;;;;;25.74;38.52;101292.13;5129923;28;20081;-73
2023/06/12 09:24:33;;;;;;;9.15;4.70;;;;;;;25.71;38.24;101280.84;5127709;27;20038;-72
2023/06/12 09:30:16;;;;;;;7.60;4.40;;;;;;;25.82;38.26;101279.44;5057986;28;20045;-78
2023/06/12 09:32:43;;;;;;;6.35;4.40;;;;;;;25.92;37.72;101281.09;5107993;27;20479;-75
2023/06/12 09:35:09;;;;;;;8.48;4.55;;;;;;;26.00;38.94;101275.63;5129295;28;20027;-74
2023/06/12 09:37:35;;;;;;;8.35;4.68;;;;;;;26.14;37.14;101289.38;5129908;28;20035;-75
2023/06/12 09:40:09;;;;;;;5.65;4.25;;;;;;;26.23;37.23;101288.63;5111136;28;20026;-74
2023/06/12 09:42:35;;;;;;;10.82;4.15;;;;;;;26.28;36.91;101289.25;5111062;28;20035;-77
2023/06/12 09:45:12;;;;;;;10.73;4.43;;;;;;;26.34;36.91;101287.16;5109028;27;20118;-73
2023/06/12 09:47:46;;;;;;;8.48;4.15;;;;;;;26.33;36.61;101293.84;5126606;27;20043;-76
2023/06/12 09:50:13;;;;;;;7.80;3.90;;;;;;;26.41;36.82;101281.16;5129127;28;20031;-73
2023/06/12 09:52:43;;;;;;;8.30;4.60;;;;;;;26.43;36.84;101289.97;5129739;28;20035;-74
2023/06/12 09:55:13;;;;;;;10.02;4.40;;;;;;;26.49;36.04;101291.47;5128699;27;20027;-76
2023/06/12 09:57:42;;;;;;;7.88;4.20;;;;;;;26.56;36.11;101285.41;5108733;28;20031;-76
2023/06/12 10:00:11;;;;;;;10.27;4.50;;;;;;;26.43;36.25;101287.19;5129792;28;20023;-74
2023/06/12 10:02:40;;;;;;;9.73;4.20;;;;;;;26.47;37.14;101293.75;5106450;28;20051;-77
2023/06/12 10:05:11;;;;;;;7.82;4.43;;;;;;;26.48;36.60;101292.59;5129773;28;20038;-71
2023/06/12 10:07:44;;;;;;;6.65;4.20;;;;;;;26.55;36.56;101290.16;5122780;28;20035;-74
2023/06/12 10:10:10;;;;;;;9.60;4.80;;;;;;;26.59;36.85;101287.59;5114537;27;20031;-76
2023/06/12 10:12:37;;;;;;;10.82;4.78;;;;;;;26.66;37.08;101277.66;5097431;28;20114;-70
2023/06/12 10:15:03;;;;;;;7.03;4.15;;;;;;;26.81;37.13;101281.09;5115670;28;20035;-78
2023/06/12 10:17:30;;;;;;;9.77;4.88;;;;;;;26.87;35.66;101283.41;5111154;27;20032;-72
2023/06/12 10:19:56;;;;;;;6.82;4.32;;;;;;;26.96;35.44;101280.59;5090769;28;20559;-71
2023/06/12 10:22:22;;;;;;;10.02;4.40;;;;;;;27.03;36.60;101278.16;5094280;27;20032;-71
2023/06/12 10:24:48;;;;;;;6.45;4.55;;;;;;;27.11;36.17;101279.31;5113704;27;20121;-76
2023/06/12 10:27:15;;;;;;;9.70;4.40;;;;;;;27.21;36.87;101272.59;5096631;28;20055;-78
2023/06/12 10:29:40;;;;;;;10.32;4.35;;;;;;;27.23;35.41;101276.66;5095841;28;20043;-71
2023/06/12 10:32:07;;;;;;;6.05;4.05;;;;;;;27.33;35.26;101270.00;5115295;28;20031;-71
2023/06/12 10:34:34;;;;;;;9.25;4.20;;;;;;;27.32;35.36;101257.25;5114860;27;20036;-79
2023/06/12 10:37:22;;;;;;;8.05;4.22;;;;;;;27.54;36.62;101266.53;5097176;28;20421;-72
2023/06/12 10:40:10;;;;;;;7.43;4.38;;;;;;;27.57;35.51;101263.09;5097258;28;20028;-71
2023/06/12 10:42:55;;;;;;;9.13;4.53;;;;;;;27.54;34.49;101261.00;5095239;28;20036;-71
2023/06/12 10:45:20;;;;;;;5.88;4.43;;;;;;;27.70;35.72;101261.25;5114908;28;20636;-72
2023/06/12 10:48:17;;;;;;;9.10;4.43;;;;;;;27.75;35.29;101263.88;5096858;28;20497;-71
2023/06/12 10:50:52;;;;;;;7.75;4.50;;;;;;;27.75;34.21;101259.13;5094962;28;20040;-72
2023/06/12 10:53:26;;;;;;;8.30;4.18;;;;;;;27.81;34.59;101256.13;5114909;28;20035;-70
2023/06/12 10:56:03;;;;;;;6.90;4.00;;;;;;;27.79;34.17;101250.09;5114931;28;20079;-76
2023/06/12 10:58:38;;;;;;;6.93;4.28;;;;;;;27.87;34.47;101254.81;5114180;27;20024;-71
2023/06/12 11:01:12;;;;;;;11.55;4.75;;;;;;;27.94;34.26;101243.97;5092336;28;20074;-71
2023/06/12 11:03:42;;;;;;;8.35;4.30;;;;;;;28.04;33.99;101248.41;5110065;27;20440;-72
2023/06/12 11:06:13;;;;;;;11.85;4.70;;;;;;;28.10;33.76;101249.84;5132174;27;20366;-72
2023/06/12 11:08:40;;;;;;;;;;;;;;;28.16;34.96;101245.72;5123562;27;20046;-73
2023/06/12 11:11:10;;;;;;;8.52;4.43;;;;;;;28.39;34.92;101237.06;5114413;28;19912;-72
2023/06/12 11:13:43;;;;;;;6.95;4.30;;;;;;;28.38;33.45;101241.81;5110795;27;20527;-72
2023/06/12 11:16:12;;;;;;;6.05;4.40;;;;;;;28.41;33.33;101246.72;5114332;28;20038;-70
2023/06/12 11:18:38;;;;;;;9.32;4.63;;;;;;;28.43;33.22;101238.84;5112680;28;20039;-73
2023/06/12 11:21:03;;;;;;;9.18;4.50;;;;;;;28.55;33.51;101234.50;5113975;27;20461;-71
2023/06/12 11:23:29;;;;;;;7.45;4.40;;;;;;;28.51;33.32;101239.94;5111072;27;20494;-75
2023/06/12 11:25:56;;;;;;;9.95;4.60;;;;;;;28.61;33.67;101230.38;5107542;28;20036;-73
2023/06/12 11:28:23;;;;;;;8.65;4.78;;;;;;;28.74;33.19;101228.50;5093904;28;20396;-73
2023/06/12 11:30:50;;;;;;;10.98;4.30;;;;;;;28.77;33.78;101231.41;5113296;28;20027;-72
2023/06/12 11:33:17;;;;;;;11.02;4.72;;;;;;;28.88;33.52;101225.44;5112990;28;20123;-72
2023/06/12 11:35:47;;;;;;;8.50;4.63;;;;;;;28.94;32.91;101222.09;5118815;27;20023;-73
2023/06/12 11:38:18;;;;;;;11.40;4.60;;;;;;;29.00;32.51;101225.47;5101417;28;20100;-73
2023/06/12 11:40:45;;;;;;;10.02;4.70;;;;;;;29.05;32.10;101219.72;5094613;27;20031;-73
2023/06/12 11:43:11;;;;;;;9.15;4.57;;;;;;;29.19;33.11;101219.41;5121505;27;20027;-72
2023/06/12 11:45:46;;;;;;;9.85;4.80;;;;;;;29.14;31.77;101220.44;5114179;28;20038;-73
2023/06/12 11:48:16;;;;;;;13.95;4.82;;;;;;;29.34;32.50;101227.13;5113632;28;20122;-72
2023/06/12 11:50:46;;;;;;;6.55;4.40;;;;;;;29.34;32.60;101217.97;5114158;28;20027;-72
2023/06/12 11:53:13;;;;;;;9.20;4.83;;;;;;;29.34;31.71;101218.78;5113713;28;20027;-71
2023/06/12 11:55:38;;;;;;;6.70;4.38;;;;;;;29.27;31.36;101203.78;5112508;28;20294;-73
2023/06/12 11:58:04;;;;;;;8.35;4.45;;;;;;;29.29;32.30;101202.28;5094649;28;20539;-72
2023/06/12 12:00:33;;;;;;;12.13;4.80;;;;;;;29.38;32.25;101207.78;5108347;28;20031;-72
2023/06/12 12:03:01;;;;;;;7.65;4.57;;;;;;;29.53;31.59;101195.09;5111981;28;20059;-72
2023/06/12 12:05:31;;;;;;;10.38;4.55;;;;;;;29.71;32.31;101209.66;5112737;28;20031;-75
2023/06/12 12:07:58;;;;;;;9.48;4.70;;;;;;;29.75;32.15;101190.28;5111369;28;20118;-73
2023/06/12 12:10:25;;;;;;;10.70;5.05;;;;;;;29.87;30.56;101204.25;5112691;28;20031;-72
2023/06/12 12:12:58;;;;;;;10.10;4.50;;;;;;;29.94;30.73;101198.06;5093460;28;20463;-73
2023/06/12 12:15:23;;;;;;;6.88;4.60;;;;;;;30.01;31.65;101190.78;5112456;28;20032;-73
2023/06/12 12:17:49;;;;;;;10.20;4.65;;;;;;;30.14;30.01;101185.97;5110636;28;20031;-72
2023/06/12 12:20:25;;;;;;;6.68;4.38;;;;;;;30.18;29.89;101192.50;5109445;28;20040;-72
2023/06/12 12:22:50;;;;;;;11.90;4.55;;;;;;;30.16;29.30;101192.00;5093015;28;20035;-73
2023/06/12 12:25:22;;;;;;;6.57;4.17;;;;;;;30.43;30.46;101192.47;5103884;28;20035;-73
2023/06/12 12:27:51;;;;;;;5.90;4.60;;;;;;;30.46;29.48;101191.75;5113216;28;20024;-73
2023/06/12 12:30:20;;;;;;;14.60;4.47;;;;;;;30.38;29.21;101189.91;5092177;28;20027;-74
2023/06/12 12:32:48;;;;;;;6.93;3.92;;;;;;;30.28;28.73;101190.38;5109466;28;20031;-75
2023/06/12 12:35:15;;;;;;;8.75;4.82;;;;;;;29.96;28.79;101191.00;5110277;28;20371;-71
2023/06/12 12:37:41;;;;;;;6.28;4.20;;;;;;;29.77;29.74;101182.34;5113187;28;20106;-72
2023/06/12 12:40:09;;;;;;;7.95;4.10;;;;;;;29.57;31.22;101186.88;5113117;28;20031;-72
2023/06/12 12:42:38;;;;;;;9.02;4.20;;;;;;;29.46;30.31;101183.75;5111362;28;20246;-72
2023/06/12 12:45:04;;;;;;;11.48;4.32;;;;;;;29.62;28.97;101181.91;5113154;28;20481;-75
2023/06/12 12:47:30;;;;;;;11.63;4.30;;;;;;;29.87;28.36;101176.34;5110663;28;20073;-72
2023/06/12 12:49:55;;;;;;;6.47;4.20;;;;;;;29.92;27.73;101166.94;5092467;28;20036;-72
2023/06/12 12:52:21;;;;;;;7.65;4.40;;;;;;;30.18;28.56;101172.13;5110888;28;20450;-72
2023/06/12 12:54:47;;;;;;;12.25;4.25;;;;;;;30.45;29.03;101161.41;5111950;28;20394;-72
2023/06/12 12:57:12;;;;;;;6.00;4.18;;;;;;;30.65;28.38;101160.41;5111856;28;20190;-73
2023/06/12 12:59:38;;;;;;;7.10;4.25;;;;;;;30.81;28.31;101160.44;5111667;28;20059;-73
2023/06/12 13:02:03;;;;;;;7.97;4.22;;;;;;;30.71;28.65;101166.56;5095772;28;20479;-72
2023/06/12 13:04:29;;;;;;;8.52;4.22;;;;;;;30.79;27.42;101164.78;5094692;28;20197;-73
2023/06/12 13:06:54;;;;;;;6.35;4.10;;;;;;;31.06;27.84;101169.53;5113118;28;20068;-72
2023/06/12 13:09:20;;;;;;;6.40;4.15;;;;;;;31.17;27.64;101164.25;5112685;28;20458;-71
2023/06/12 13:11:45;;;;;;;9.00;4.20;;;;;;;31.26;27.24;101162.09;5104505;28;20051;-72
2023/06/12 13:14:11;;;;;;;6.28;4.05;;;;;;;31.39;27.45;101162.03;5132371;28;20612;-73
2023/06/12 13:16:36;;;;;;;8.07;3.78;;;;;;;31.40;26.02;101149.66;5108175;28;20047;-73
2023/06/12 13:19:01;;;;;;;7.28;3.92;;;;;;;31.58;27.37;101150.94;5112814;28;20034;-73
2023/06/12 13:21:29;;;;;;;6.47;3.92;;;;;;;31.40;25.57;101152.44;5111620;28;20039;-73
2023/06/12 13:23:54;;;;;;;7.35;4.13;;;;;;;31.10;26.99;101155.66;5109446;28;20046;-72
2023/06/12 13:26:20;;;;;;;7.18;4.07;;;;;;;30.88;27.99;101157.84;5111256;28;20181;-73
2023/06/12 13:28:45;;;;;;;7.68;4.30;;;;;;;30.66;28.23;101156.44;5112744;28;20611;-73
2023/06/12 13:31:14;;;;;;;6.47;4.38;;;;;;;30.88;28.73;101160.63;5112247;28;20036;-75
2023/06/12 13:33:39;;;;;;;6.75;4.20;;;;;;;31.06;27.55;101157.56;5094227;28;20102;-72
2023/06/12 13:36:04;;;;;;;7.57;4.20;;;;;;;31.26;28.24;101155.69;5111367;28;20510;-73
2023/06/12 13:38:30;;;;;;;7.28;4.28;;;;;;;31.16;26.20;101153.41;5109953;28;20298;-71
2023/06/12 13:40:55;;;;;;;7.53;4.05;;;;;;;31.21;26.34;101153.97;5111390;28;20547;-73
2023/06/12 13:43:20;;;;;;;5.15;3.80;;;;;;;31.26;27.02;101145.31;5113478;28;20020;-73
2023/06/12 13:45:47;;;;;;;8.63;4.03;;;;;;;31.47;26.56;101155.44;5116708;28;20066;-71
2023/06/12 13:48:13;;;;;;;9.85;4.22;;;;;;;31.50;26.15;101154.69;5116168;28;20081;-72
2023/06/12 13:50:38;;;;;;;9.65;4.13;;;;;;;31.52;26.13;101138.38;5114287;28;20036;-72
2023/06/12 13:53:04;;;;;;;4.93;3.70;;;;;;;31.54;26.93;101136.03;5116290;28;20447;-72
2023/06/12 13:55:29;;;;;;;5.60;3.65;;;;;;;31.72;27.26;101144.06;5113326;28;20028;-72
2023/06/12 13:57:55;;;;;;;5.72;4.10;;;;;;;31.67;26.35;101147.16;5095804;28;20028;-70
2023/06/12 14:00:21;;;;;;;4.82;4.05;;;;;;;31.67;27.30;101142.34;5097452;28;20036;-72
2023/06/12 14:02:46;;;;;;;6.50;3.90;;;;;;;31.75;27.61;101143.34;5112163;27;20100;-71
2023/06/12 14:05:13;;;;;;;6.90;4.00;;;;;;;31.66;26.84;101148.31;5114870;28;20036;-72
2023/06/12 14:07:39;;;;;;;6.18;3.95;;;;;;;31.27;27.39;101140.56;5115144;28;20278;-74
2023/06/12 14:10:07;;;;;;;6.22;4.03;;;;;;;31.09;27.99;101145.66;5097676;28;20028;-73
2023/06/12 14:12:33;;;;;;;5.38;4.03;;;;;;;30.70;27.02;101140.59;5113785;27;20031;-73
2023/06/12 14:14:59;;;;;;;5.30;4.00;;;;;;;30.51;28.54;101138.47;5099268;28;20118;-72
2023/06/12 14:17:24;;;;;;;4.30;3.67;;;;;;;30.35;27.80;101135.56;5124929;27;20058;-73
2023/06/12 14:19:50;;;;;;;6.97;4.22;;;;;;;30.26;29.21;101125.72;5115494;28;20031;-73
2023/06/12 14:22:15;;;;;;;7.55;3.90;;;;;;;30.30;28.68;101121.88;5115360;28;20035;-75
2023/06/12 14:24:41;;;;;;;7.97;4.10;;;;;;;30.56;29.04;101124.25;5095956;28;20438;-73
2023/06/12 14:27:07;;;;;;;9.23;4.45;;;;;;;30.71;29.25;101125.47;5114112;28;20024;-72
2023/06/12 14:29:32;;;;;;;8.63;3.75;;;;;;;30.92;27.77;101122.44;5114313;28;20032;-71
2023/06/12 14:31:58;;;;;;;7.55;3.85;;;;;;;31.13;26.46;101121.41;5115501;28;20446;-70
2023/06/12 14:34:23;;;;;;;6.68;3.90;;;;;;;31.44;26.27;101114.19;5115333;28;20245;-72
2023/06/12 14:36:48;;;;;;;7.07;3.90;;;;;;;31.43;26.88;101109.78;5113063;28;20028;-72
2023/06/12 14:39:14;;;;;;;11.57;3.60;;;;;;;31.58;25.95;101114.56;5114790;28;20751;-72
2023/06/12 14:41:39;;;;;;;10.65;4.25;;;;;;;31.74;25.69;101105.38;5115630;28;20265;-73
2023/06/12 14:44:04;;;;;;;4.60;3.73;;;;;;;31.84;25.26;101106.78;5114116;28;20111;-72
2023/06/12 14:46:29;;;;;;;6.53;3.78;;;;;;;32.06;25.39;101108.06;5113151;28;20289;-72
2023/06/12 14:48:55;;;;;;;9.05;4.00;;;;;;;32.23;24.75;101095.66;5113762;28;20157;-72
2023/06/12 14:51:20;;;;;;;4.53;3.80;;;;;;;32.32;25.51;101099.88;5114800;28;20132;-71
2023/06/12 14:53:45;;;;;;;5.73;3.60;;;;;;;32.49;25.86;101103.38;5114874;28;20096;-74
2023/06/12 14:56:11;;;;;;;7.87;3.90;;;;;;;32.59;24.67;101100.00;5114774;28;20644;-73
2023/06/12 14:58:36;;;;;;;4.47;3.77;;;;;;;32.61;24.57;101100.44;5114884;28;20301;-74
2023/06/12 15:01:01;;;;;;;7.07;3.90;;;;;;;32.70;24.32;101091.00;5111506;28;20278;-71
2023/06/12 15:03:26;;;;;;;8.25;3.80;;;;;;;32.76;25.27;101103.53;5111532;28;20285;-70
2023/06/12 15:05:54;;;;;;;6.60;3.40;;;;;;;32.44;25.29;101101.69;5111779;28;20028;-72
2023/06/12 15:08:20;;;;;;;5.72;3.55;;;;;;;32.04;25.70;101100.03;5128754;27;20535;-73
2023/06/12 15:10:47;;;;;;;5.32;3.22;;;;;;;31.79;25.99;101100.28;5115049;28;20028;-72
2023/06/12 15:13:13;;;;;;;7.95;3.50;;;;;;;31.93;24.62;101094.22;5096489;28;20026;-74
2023/06/12 15:15:38;;;;;;;4.23;3.40;;;;;;;32.02;24.05;101093.19;5114153;28;20114;-74
2023/06/12 15:18:04;;;;;;;5.18;3.35;;;;;;;31.86;24.88;101088.44;5096374;28;20281;-72
2023/06/12 15:20:29;;;;;;;5.22;3.40;;;;;;;31.91;24.80;101090.16;5113815;28;20019;-73
2023/06/12 15:22:54;;;;;;;4.20;3.20;;;;;;;32.08;25.20;101088.91;5106141;28;20034;-74
2023/06/12 15:25:20;;;;;;;5.47;3.67;;;;;;;32.27;24.80;101090.94;5098338;28;20051;-74
2023/06/12 15:27:47;;;;;;;4.00;3.63;;;;;;;32.38;24.54;101088.38;5109351;28;20026;-72
2023/06/12 15:30:12;;;;;;;4.40;3.63;;;;;;;32.54;23.71;101083.50;5078191;28;20387;-71
2023/06/12 15:32:38;;;;;;;5.20;3.20;;;;;;;32.73;23.75;101079.06;5083665;28;20039;-75
2023/06/12 15:35:04;;;;;;;5.78;3.13;;;;;;;32.85;24.54;101070.47;5112795;28;20035;-73
2023/06/12 15:37:29;;;;;;;3.53;3.22;;;;;;;32.99;24.37;101079.16;5111705;28;20039;-72
2023/06/12 15:39:54;;;;;;;9.07;3.30;;;;;;;33.26;24.62;101078.41;5111708;28;20466;-72
2023/06/12 15:42:20;;;;;;;7.00;3.60;;;;;;;33.28;23.69;101082.47;5113283;28;20282;-72
2023/06/12 15:44:45;;;;;;;7.15;3.00;;;;;;;33.20;22.18;101080.72;5114071;28;20085;-72
2023/06/12 15:47:11;;;;;;;5.60;3.22;;;;;;;33.37;22.73;101085.81;5113777;28;20035;-75
2023/06/12 15:49:36;;;;;;;8.77;3.40;;;;;;;33.54;23.02;101080.88;5113575;28;20030;-73
2023/06/12 15:52:02;;;;;;;4.53;2.85;;;;;;;33.67;23.01;101082.28;5113747;28;20043;-75
2023/06/12 15:54:27;;;;;;;4.05;3.15;;;;;;;33.68;21.81;101083.91;5111885;28;20468;-75
2023/06/12 15:56:53;;;;;;;5.80;3.40;;;;;;;33.42;22.55;101087.50;5110190;28;20428;-71
2023/06/12 15:59:19;;;;;;;3.53;2.90;;;;;;;32.96;23.56;101077.09;5112273;27;20097;-73
2023/06/12 16:01:45;;;;;;;6.32;3.15;;;;;;;32.74;23.77;101080.69;5119120;27;20043;-74
2023/06/12 16:04:11;;;;;;;5.25;3.05;;;;;;;32.39;24.94;101076.00;5103668;28;20149;-74
2023/06/12 16:06:37;;;;;;;5.72;3.70;;;;;;;32.03;23.85;101076.00;5109846;28;20114;-72
